sensor_id;sensor_type;location;lat;lon;timestamp;pressure;altitude;pressure_sealevel;temperature;humidity
10097;BME280;5087;42.662;23.466;2022-12-05T00:00:58;96344.19;;;2.74;100.00
10097;BME280;5087;42.662;23.466;2022-12-05T00:03:26;96343.94;;;2.76;100.00
10097;BME280;5087;42.662;23.466;2022-12-05T00:05:53;96338.59;;;2.76;100.00
10097;BME280;5087;42.662;23.466;2022-12-05T00:08:20;96339.38;;;2.76;100.00
10097;BME280;5087;42.662;23.466;2022-12-05T00:10:47;96335.56;;;2.72;100.00
10097;BME280;5087;42.662;23.466;2022-12-05T00:13:14;96349.53;;;2.74;100.00
10097;BME280;5087;42.662;23.466;2022-12-05T00:15:42;96343.38;;;2.74;100.00
10097;BME280;5087;42.662;23.466;2022-12-05T00:18:11;96353.78;;;2.70;100.00
10097;BME280;5087;42.662;23.466;2022-12-05T00:20:43;96338.88;;;2.62;100.00
10097;BME280;5087;42.662;23.466;2022-12-05T00:23:10;96355.88;;;2.68;100.00
10097;BME280;5087;42.662;23.466;2022-12-05T00:25:38;96353.19;;;2.68;100.00
10097;BME280;5087;42.662;23.466;2022-12-05T00:28:05;96350.50;;;2.68;100.00
10097;BME280;5087;42.662;23.466;2022-12-05T00:30:33;96355.88;;;2.68;100.00
10097;BME280;5087;42.662;23.466;2022-12-05T00:33:05;96356.53;;;2.75;100.00
10097;BME280;5087;42.662;23.466;2022-12-05T00:35:36;96356.53;;;2.75;100.00
10097;BME280;5087;42.662;23.466;2022-12-05T00:38:04;96361.91;;;2.75;100.00
10097;BME280;5087;42.662;23.466;2022-12-05T00:40:34;96363.53;;;2.76;100.00
10097;BME280;5087;42.662;23.466;2022-12-05T00:43:01;96354.91;;;2.74;100.00
10097;BME280;5087;42.662;23.466;2022-12-05T00:45:28;96340.03;;;2.66;100.00
10097;BME280;5087;42.662;23.466;2022-12-05T00:47:56;96354.75;;;2.81;100.00
10097;BME280;5087;42.662;23.466;2022-12-05T00:50:23;96365.81;;;2.84;100.00
10097;BME280;5087;42.662;23.466;2022-12-05T00:52:52;96326.31;;;2.63;100.00
10097;BME280;5087;42.662;23.466;2022-12-05T00:55:19;96365.22;;;2.82;100.00
10097;BME280;5087;42.662;23.466;2022-12-05T00:57:47;96351.75;;;2.77;100.00
10097;BME280;5087;42.662;23.466;2022-12-05T01:00:15;96347.44;;;2.76;100.00
10097;BME280;5087;42.662;23.466;2022-12-05T01:02:42;96357.19;;;2.82;100.00
10097;BME280;5087;42.662;23.466;2022-12-05T01:05:09;96346.97;;;2.79;100.00
10097;BME280;5087;42.662;23.466;2022-12-05T01:07:37;96337.75;;;2.75;100.00
10097;BME280;5087;42.662;23.466;2022-12-05T01:10:07;96329.47;;;2.77;100.00
10097;BME280;5087;42.662;23.466;2022-12-05T01:12:35;96332.06;;;2.72;100.00
10097;BME280;5087;42.662;23.466;2022-12-05T01:15:02;96332.06;;;2.72;100.00
10097;BME280;5087;42.662;23.466;2022-12-05T01:17:30;96337.34;;;2.66;100.00
10097;BME280;5087;42.662;23.466;2022-12-05T01:19:57;96335.97;;;2.64;100.00
10097;BME280;5087;42.662;23.466;2022-12-05T01:22:24;96336.78;;;2.64;100.00
10097;BME280;5087;42.662;23.466;2022-12-05T01:24:51;96328.88;;;2.58;100.00
10097;BME280;5087;42.662;23.466;2022-12-05T01:27:20;96342.59;;;2.61;100.00
10097;BME280;5087;42.662;23.466;2022-12-05T01:29:48;96339.13;;;2.61;100.00
10097;BME280;5087;42.662;23.466;2022-12-05T01:32:19;96326.38;;;2.51;100.00
10097;BME280;5087;42.662;23.466;2022-12-05T01:34:46;96338.66;;;2.64;100.00
10097;BME280;5087;42.662;23.466;2022-12-05T01:37:14;96334.50;;;2.73;100.00
10097;BME280;5087;42.662;23.466;2022-12-05T01:39:41;96331.81;;;2.73;100.00
10097;BME280;5087;42.662;23.466;2022-12-05T01:42:10;96330.38;;;2.82;100.00
10097;BME280;5087;42.662;23.466;2022-12-05T01:45:03;96328.59;;;2.88;100.00
10097;BME280;5087;42.662;23.466;2022-12-05T01:47:32;96326.22;;;2.92;100.00
10097;BME280;5087;42.662;23.466;2022-12-05T01:50:01;96322.72;;;2.91;100.00
10097;BME280;5087;42.662;23.466;2022-12-05T01:52:30;96322.25;;;2.94;100.00
10097;BME280;5087;42.662;23.466;2022-12-05T01:55:03;96312.34;;;2.95;100.00
10097;BME280;5087;42.662;23.466;2022-12-05T01:57:32;96311.84;;;2.98;100.00
10097;BME280;5087;42.662;23.466;2022-12-05T02:00:04;96297.78;;;2.91;100.00
10097;BME280;5087;42.662;23.466;2022-12-05T02:02:43;96313.47;;;2.99;100.00
10097;BME280;5087;42.662;23.466;2022-12-05T02:05:15;96299.34;;;2.87;100.00
10097;BME280;5087;42.662;23.466;2022-12-05T02:07:47;96321.50;;;2.99;100.00
10097;BME280;5087;42.662;23.466;2022-12-05T02:10:14;96302.88;;;2.92;100.00
10097;BME280;5087;42.662;23.466;2022-12-05T02:12:42;96315.66;;;3.02;100.00
10097;BME280;5087;42.662;23.466;2022-12-05T02:15:22;96321.84;;;3.03;100.00
10097;BME280;5087;42.662;23.466;2022-12-05T02:18:00;96319.94;;;3.03;100.00
10097;BME280;5087;42.662;23.466;2022-12-05T02:20:46;96316.16;;;2.99;100.00
10097;BME280;5087;42.662;23.466;2022-12-05T02:23:26;96319.41;;;3.01;100.00
10097;BME280;5087;42.662;23.466;2022-12-05T02:26:31;96315.09;;;3.00;100.00
10097;BME280;5087;42.662;23.466;2022-12-05T02:32:10;96315.09;;;3.00;100.00
10097;BME280;5087;42.662;23.466;2022-12-05T02:34:45;96318.34;;;3.02;100.00
10097;BME280;5087;42.662;23.466;2022-12-05T02:37:16;96308.16;;;3.04;100.00
10097;BME280;5087;42.662;23.466;2022-12-05T02:39:52;96317.84;;;3.05;100.00
10097;BME280;5087;42.662;23.466;2022-12-05T02:42:28;96292.47;;;2.96;100.00
10097;BME280;5087;42.662;23.466;2022-12-05T02:45:00;96292.47;;;2.96;100.00
10097;BME280;5087;42.662;23.466;2022-12-05T02:47:35;96292.00;;;2.99;100.00
10097;BME280;5087;42.662;23.466;2022-12-05T02:50:06;96308.16;;;3.04;100.00
10097;BME280;5087;42.662;23.466;2022-12-05T02:52:35;96303.84;;;3.03;100.00
10097;BME280;5087;42.662;23.466;2022-12-05T02:55:04;96296.25;;;2.95;100.00
10097;BME280;5087;42.662;23.466;2022-12-05T02:57:34;96295.47;;;2.99;100.00
10097;BME280;5087;42.662;23.466;2022-12-05T03:00:02;96294.09;;;2.97;100.00
10097;BME280;5087;42.662;23.466;2022-12-05T03:02:32;96292.88;;;2.88;100.00
10097;BME280;5087;42.662;23.466;2022-12-05T03:05:09;96300.94;;;2.88;100.00
10097;BME280;5087;42.662;23.466;2022-12-05T03:07:44;96293.41;;;2.84;100.00
10097;BME280;5087;42.662;23.466;2022-12-05T03:10:13;96296.66;;;2.87;100.00
10097;BME280;5087;42.662;23.466;2022-12-05T03:12:44;96284.53;;;2.84;100.00
10097;BME280;5087;42.662;23.466;2022-12-05T03:15:16;96293.00;;;2.93;100.00
10097;BME280;5087;42.662;23.466;2022-12-05T03:17:50;96287.38;;;2.94;100.00
10097;BME280;5087;42.662;23.466;2022-12-05T03:20:23;96289.25;;;2.94;100.00
10097;BME280;5087;42.662;23.466;2022-12-05T03:22:55;96281.63;;;2.85;100.00
10097;BME280;5087;42.662;23.466;2022-12-05T03:25:33;96291.09;;;2.93;100.00
10097;BME280;5087;42.662;23.466;2022-12-05T03:28:08;96300.22;;;2.92;100.00
10097;BME280;5087;42.662;23.466;2022-12-05T03:30:38;96303.47;;;2.94;100.00
10097;BME280;5087;42.662;23.466;2022-12-05T03:33:10;96293.78;;;2.93;100.00
10097;BME280;5087;42.662;23.466;2022-12-05T03:35:44;96296.25;;;2.95;100.00
10097;BME280;5087;42.662;23.466;2022-12-05T03:38:20;96296.72;;;2.92;100.00
10097;BME280;5087;42.662;23.466;2022-12-05T03:40:52;96308.56;;;2.96;100.00
10097;BME280;5087;42.662;23.466;2022-12-05T03:43:30;96300.22;;;2.92;100.00
10097;BME280;5087;42.662;23.466;2022-12-05T03:46:04;96302.88;;;2.92;100.00
10097;BME280;5087;42.662;23.466;2022-12-05T03:48:36;96302.66;;;2.94;100.00
10097;BME280;5087;42.662;23.466;2022-12-05T03:51:06;96293.97;;;2.87;100.00
10097;BME280;5087;42.662;23.466;2022-12-05T03:53:40;96303.22;;;2.96;100.00
10097;BME280;5087;42.662;23.466;2022-12-05T03:56:13;96303.00;;;2.97;100.00
10097;BME280;5087;42.662;23.466;2022-12-05T03:58:46;96302.72;;;2.99;100.00
10097;BME280;5087;42.662;23.466;2022-12-05T04:01:17;96308.41;;;3.03;100.00
10097;BME280;5087;42.662;23.466;2022-12-05T04:03:54;96299.06;;;3.05;100.00
10097;BME280;5087;42.662;23.466;2022-12-05T04:06:26;96307.94;;;3.06;100.00
10097;BME280;5087;42.662;23.466;2022-12-05T04:08:58;96297.63;;;2.97;100.00
10097;BME280;5087;42.662;23.466;2022-12-05T04:11:31;96307.13;;;3.05;100.00
10097;BME280;5087;42.662;23.466;2022-12-05T04:14:04;96309.88;;;3.10;100.00
10097;BME280;5087;42.662;23.466;2022-12-05T04:16:36;96290.69;;;3.01;100.00
10097;BME280;5087;42.662;23.466;2022-12-05T04:19:27;96284.03;;;3.04;100.00
10097;BME280;5087;42.662;23.466;2022-12-05T04:22:17;96287.84;;;3.08;100.00
10097;BME280;5087;42.662;23.466;2022-12-05T04:24:44;96292.16;;;3.09;100.00
10097;BME280;5087;42.662;23.466;2022-12-05T04:27:35;96272.66;;;2.97;100.00
10097;BME280;5087;42.662;23.466;2022-12-05T04:30:08;96293.78;;;3.10;100.00
10097;BME280;5087;42.662;23.466;2022-12-05T04:32:40;96300.75;;;3.11;100.00
10097;BME280;5087;42.662;23.466;2022-12-05T04:35:14;96281.59;;;3.03;100.00
10097;BME280;5087;42.662;23.466;2022-12-05T04:37:46;96274.28;;;2.98;100.00
10097;BME280;5087;42.662;23.466;2022-12-05T04:40:20;96297.53;;;3.09;100.00
10097;BME280;5087;42.662;23.466;2022-12-05T04:42:50;96293.28;;;3.13;100.00
10097;BME280;5087;42.662;23.466;2022-12-05T04:45:22;96288.34;;;3.05;100.00
10097;BME280;5087;42.662;23.466;2022-12-05T04:47:54;96299.72;;;3.12;100.00
10097;BME280;5087;42.662;23.466;2022-12-05T04:50:26;96300.75;;;3.11;100.00
10097;BME280;5087;42.662;23.466;2022-12-05T04:52:56;96309.97;;;3.15;100.00
10097;BME280;5087;42.662;23.466;2022-12-05T04:55:26;96310.75;;;3.16;100.00
10097;BME280;5087;42.662;23.466;2022-12-05T04:57:59;96316.94;;;3.16;100.00
10097;BME280;5087;42.662;23.466;2022-12-05T05:00:29;96314.28;;;3.16;100.00
10097;BME280;5087;42.662;23.466;2022-12-05T05:03:00;96318.81;;;3.16;100.00
10097;BME280;5087;42.662;23.466;2022-12-05T05:05:32;96319.63;;;3.16;100.00
10097;BME280;5087;42.662;23.466;2022-12-05T05:08:01;96316.38;;;3.14;100.00
10097;BME280;5087;42.662;23.466;2022-12-05T05:10:33;96315.91;;;3.17;100.00
10097;BME280;5087;42.662;23.466;2022-12-05T05:13:01;96318.47;;;3.12;100.00
10097;BME280;5087;42.662;23.466;2022-12-05T05:15:28;96339.78;;;3.19;100.00
10097;BME280;5087;42.662;23.466;2022-12-05T05:17:55;96327.91;;;3.15;100.00
10097;BME280;5087;42.662;23.466;2022-12-05T05:20:23;96339.53;;;3.21;100.00
10097;BME280;5087;42.662;23.466;2022-12-05T05:22:54;96311.91;;;3.03;100.00
10097;BME280;5087;42.662;23.466;2022-12-05T05:25:22;96338.75;;;3.20;100.00
10097;BME280;5087;42.662;23.466;2022-12-05T05:27:55;96340.59;;;3.20;100.00
10097;BME280;5087;42.662;23.466;2022-12-05T05:30:23;96354.00;;;3.20;100.00
10097;BME280;5087;42.662;23.466;2022-12-05T05:32:50;96340.59;;;3.20;100.00
10097;BME280;5087;42.662;23.466;2022-12-05T05:35:17;96303.22;;;2.96;100.00
10097;BME280;5087;42.662;23.466;2022-12-05T05:37:45;96341.75;;;3.24;100.00
10097;BME280;5087;42.662;23.466;2022-12-05T05:40:14;96342.53;;;3.24;100.00
10097;BME280;5087;42.662;23.466;2022-12-05T05:42:42;96340.69;;;3.25;100.00
10097;BME280;5087;42.662;23.466;2022-12-05T05:45:10;96345.53;;;3.28;100.00
10097;BME280;5087;42.662;23.466;2022-12-05T05:47:38;96346.13;;;3.30;100.00
10097;BME280;5087;42.662;23.466;2022-12-05T05:50:07;96353.38;;;3.29;100.00
10097;BME280;5087;42.662;23.466;2022-12-05T05:52:35;96341.81;;;3.29;100.00
10097;BME280;5087;42.662;23.466;2022-12-05T05:55:05;96352.06;;;3.32;100.00
10097;BME280;5087;42.662;23.466;2022-12-05T05:57:34;96341.00;;;3.28;100.00
10097;BME280;5087;42.662;23.466;2022-12-05T06:00:05;96317.38;;;3.08;100.00
10097;BME280;5087;42.662;23.466;2022-12-05T06:02:33;96360.13;;;3.32;100.00
10097;BME280;5087;42.662;23.466;2022-12-05T06:05:02;96353.91;;;3.31;100.00
10097;BME280;5087;42.662;23.466;2022-12-05T06:07:29;96346.38;;;3.28;100.00
10097;BME280;5087;42.662;23.466;2022-12-05T06:09:56;96335.81;;;3.22;100.00
10097;BME280;5087;42.662;23.466;2022-12-05T06:12:24;96353.91;;;3.31;100.00
10097;BME280;5087;42.662;23.466;2022-12-05T06:14:53;96355.28;;;3.34;100.00
10097;BME280;5087;42.662;23.466;2022-12-05T06:17:21;96366.84;;;3.35;100.00
10097;BME280;5087;42.662;23.466;2022-12-05T06:19:48;96364.19;;;3.35;100.00
10097;BME280;5087;42.662;23.466;2022-12-05T06:22:16;96371.16;;;3.36;100.00
10097;BME280;5087;42.662;23.466;2022-12-05T06:24:43;96372.53;;;3.38;100.00
10097;BME280;5087;42.662;23.466;2022-12-05T06:27:10;96361.22;;;3.36;100.00
10097;BME280;5087;42.662;23.466;2022-12-05T06:29:37;96361.81;;;3.38;100.00
10097;BME280;5087;42.662;23.466;2022-12-05T06:32:05;96346.13;;;3.30;100.00
10097;BME280;5087;42.662;23.466;2022-12-05T06:34:33;96364.50;;;3.38;100.00
10097;BME280;5087;42.662;23.466;2022-12-05T06:37:01;96357.75;;;3.36;100.00
10097;BME280;5087;42.662;23.466;2022-12-05T06:39:28;96373.13;;;3.40;100.00
10097;BME280;5087;42.662;23.466;2022-12-05T06:41:56;96368.22;;;3.37;100.00
10097;BME280;5087;42.662;23.466;2022-12-05T06:44:23;96376.84;;;3.39;100.00
10097;BME280;5087;42.662;23.466;2022-12-05T06:46:53;96383.03;;;3.40;100.00
10097;BME280;5087;42.662;23.466;2022-12-05T06:49:22;96385.97;;;3.38;100.00
10097;BME280;5087;42.662;23.466;2022-12-05T06:51:57;96344.31;;;3.19;100.00
10097;BME280;5087;42.662;23.466;2022-12-05T06:54:24;96378.50;;;3.40;100.00
10097;BME280;5087;42.662;23.466;2022-12-05T06:56:51;96380.59;;;3.38;100.00
10097;BME280;5087;42.662;23.466;2022-12-05T06:59:18;96374.72;;;3.41;100.00
10097;BME280;5087;42.662;23.466;2022-12-05T07:01:46;96381.81;;;3.47;100.00
10097;BME280;5087;42.662;23.466;2022-12-05T07:04:14;96374.81;;;3.46;100.00
10097;BME280;5087;42.662;23.466;2022-12-05T07:06:44;96383.19;;;3.50;100.00
10097;BME280;5087;42.662;23.466;2022-12-05T07:09:11;96371.13;;;3.53;100.00
10097;BME280;5087;42.662;23.466;2022-12-05T07:11:39;96366.56;;;3.53;100.00
10097;BME280;5087;42.662;23.466;2022-12-05T07:14:06;96378.47;;;3.57;100.00
10097;BME280;5087;42.662;23.466;2022-12-05T07:16:37;96379.84;;;3.60;100.00
10097;BME280;5087;42.662;23.466;2022-12-05T07:19:05;96349.75;;;3.41;100.00
10097;BME280;5087;42.662;23.466;2022-12-05T07:21:32;96379.34;;;3.63;100.00
10097;BME280;5087;42.662;23.466;2022-12-05T07:24:02;96374.53;;;3.65;100.00
10097;BME280;5087;42.662;23.466;2022-12-05T07:26:29;96382.16;;;3.73;100.00
10097;BME280;5087;42.662;23.466;2022-12-05T07:28:56;96377.09;;;3.77;100.00
10097;BME280;5087;42.662;23.466;2022-12-05T07:31:24;96376.78;;;3.73;100.00
10097;BME280;5087;42.662;23.466;2022-12-05T07:33:54;96388.66;;;3.77;100.00
10097;BME280;5087;42.662;23.466;2022-12-05T07:36:21;96397.03;;;3.81;100.00
10097;BME280;5087;42.662;23.466;2022-12-05T07:38:53;96387.66;;;3.84;100.00
10097;BME280;5087;42.662;23.466;2022-12-05T07:41:26;96392.34;;;3.93;100.00
10097;BME280;5087;42.662;23.466;2022-12-05T07:43:55;96391.47;;;3.88;100.00
10097;BME280;5087;42.662;23.466;2022-12-05T07:46:23;96380.19;;;3.86;100.00
10097;BME280;5087;42.662;23.466;2022-12-05T07:48:51;96389.41;;;3.95;100.00
10097;BME280;5087;42.662;23.466;2022-12-05T07:51:19;96386.19;;;3.93;100.00
10097;BME280;5087;42.662;23.466;2022-12-05T07:53:47;96394.78;;;3.95;100.00
10097;BME280;5087;42.662;23.466;2022-12-05T07:56:15;96396.94;;;3.93;100.00
10097;BME280;5087;42.662;23.466;2022-12-05T07:58:46;96392.69;;;3.97;100.00
10097;BME280;5087;42.662;23.466;2022-12-05T08:01:15;96395.44;;;4.02;100.00
10097;BME280;5087;42.662;23.466;2022-12-05T08:03:43;96391.66;;;4.03;100.00
10097;BME280;5087;42.662;23.466;2022-12-05T08:06:12;96390.31;;;4.01;100.00
10097;BME280;5087;42.662;23.466;2022-12-05T08:08:43;96396.00;;;4.04;100.00
10097;BME280;5087;42.662;23.466;2022-12-05T08:11:15;96387.38;;;4.02;100.00
10097;BME280;5087;42.662;23.466;2022-12-05T08:13:45;96383.56;;;3.98;100.00
10097;BME280;5087;42.662;23.466;2022-12-05T08:16:14;96342.19;;;3.77;100.00
10097;BME280;5087;42.662;23.466;2022-12-05T08:18:41;96356.19;;;4.01;100.00
10097;BME280;5087;42.662;23.466;2022-12-05T08:21:10;96377.66;;;4.23;100.00
10097;BME280;5087;42.662;23.466;2022-12-05T08:23:38;96362.69;;;4.27;100.00
10097;BME280;5087;42.662;23.466;2022-12-05T08:26:08;96377.84;;;4.39;100.00
10097;BME280;5087;42.662;23.466;2022-12-05T08:28:40;96378.28;;;4.53;100.00
10097;BME280;5087;42.662;23.466;2022-12-05T08:31:10;96369.84;;;4.44;100.00
10097;BME280;5087;42.662;23.466;2022-12-05T08:33:38;96380.97;;;4.53;100.00
10097;BME280;5087;42.662;23.466;2022-12-05T08:36:10;96365.31;;;4.50;100.00
10097;BME280;5087;42.662;23.466;2022-12-05T08:38:38;96361.00;;;4.49;100.00
10097;BME280;5087;42.662;23.466;2022-12-05T08:41:07;96362.03;;;4.42;100.00
10097;BME280;5087;42.662;23.466;2022-12-05T08:43:35;96356.66;;;4.42;100.00
10097;BME280;5087;42.662;23.466;2022-12-05T08:46:02;96371.25;;;4.52;100.00
10097;BME280;5087;42.662;23.466;2022-12-05T08:48:32;96369.16;;;4.54;100.00
10097;BME280;5087;42.662;23.466;2022-12-05T08:51:04;96364.34;;;4.56;100.00
10097;BME280;5087;42.662;23.466;2022-12-05T08:53:35;96383.16;;;4.56;100.00
10097;BME280;5087;42.662;23.466;2022-12-05T08:56:04;96367.50;;;4.53;100.00
10097;BME280;5087;42.662;23.466;2022-12-05T08:58:32;96365.78;;;4.41;100.00
10097;BME280;5087;42.662;23.466;2022-12-05T09:01:04;96369.63;;;4.51;100.00
10097;BME280;5087;42.662;23.466;2022-12-05T09:03:33;96354.56;;;4.50;100.00
10097;BME280;5087;42.662;23.466;2022-12-05T09:06:12;96371.91;;;4.64;100.00
10097;BME280;5087;42.662;23.466;2022-12-05T09:08:41;96374.72;;;4.74;100.00
10097;BME280;5087;42.662;23.466;2022-12-05T09:11:10;96370.97;;;4.75;100.00
10097;BME280;5087;42.662;23.466;2022-12-05T09:13:38;96363.47;;;4.78;100.00
10097;BME280;5087;42.662;23.466;2022-12-05T09:16:06;96361.16;;;4.64;100.00
10097;BME280;5087;42.662;23.466;2022-12-05T09:18:35;96366.34;;;4.71;100.00
10097;BME280;5087;42.662;23.466;2022-12-05T09:21:06;96359.78;;;4.62;100.00
10097;BME280;5087;42.662;23.466;2022-12-05T09:23:36;96358.88;;;4.78;100.00
10097;BME280;5087;42.662;23.466;2022-12-05T09:26:05;96357.66;;;4.91;100.00
10097;BME280;5087;42.662;23.466;2022-12-05T09:28:33;96354.41;;;4.89;100.00
10097;BME280;5087;42.662;23.466;2022-12-05T09:31:02;96347.34;;;4.83;100.00
10097;BME280;5087;42.662;23.466;2022-12-05T09:33:35;96351.50;;;4.96;100.00
10097;BME280;5087;42.662;23.466;2022-12-05T09:36:03;96342.31;;;4.91;100.00
10097;BME280;5087;42.662;23.466;2022-12-05T09:38:31;96349.06;;;4.94;100.00
10097;BME280;5087;42.662;23.466;2022-12-05T09:41:06;96346.38;;;4.94;100.00
10097;BME280;5087;42.662;23.466;2022-12-05T09:43:40;96350.66;;;4.95;100.00
10097;BME280;5087;42.662;23.466;2022-12-05T09:46:18;96344.19;;;4.91;100.00
10097;BME280;5087;42.662;23.466;2022-12-05T09:48:49;96335.22;;;4.80;100.00
10097;BME280;5087;42.662;23.466;2022-12-05T09:51:17;96334.69;;;4.83;100.00
10097;BME280;5087;42.662;23.466;2022-12-05T09:53:45;96352.75;;;4.88;100.00
10097;BME280;5087;42.662;23.466;2022-12-05T09:56:20;96332.84;;;4.84;100.00
10097;BME280;5087;42.662;23.466;2022-12-05T09:58:50;96335.28;;;4.90;100.00
10097;BME280;5087;42.662;23.466;2022-12-05T10:01:30;96332.09;;;4.94;100.00
10097;BME280;5087;42.662;23.466;2022-12-05T10:04:25;96334.00;;;4.93;100.00
10097;BME280;5087;42.662;23.466;2022-12-05T10:07:00;96320.47;;;4.88;100.00
10097;BME280;5087;42.662;23.466;2022-12-05T10:09:50;96330.53;;;4.98;100.00
10097;BME280;5087;42.662;23.466;2022-12-05T10:12:33;96330.78;;;4.96;100.00
10097;BME280;5087;42.662;23.466;2022-12-05T10:15:08;96330.31;;;5.04;100.00
10097;BME280;5087;42.662;23.466;2022-12-05T10:17:41;96326.41;;;4.90;100.00
10097;BME280;5087;42.662;23.466;2022-12-05T10:20:15;96318.66;;;4.94;100.00
10097;BME280;5087;42.662;23.466;2022-12-05T10:22:46;96318.38;;;4.95;100.00
10097;BME280;5087;42.662;23.466;2022-12-05T10:25:17;96317.97;;;4.76;100.00
10097;BME280;5087;42.662;23.466;2022-12-05T10:27:48;96316.09;;;4.77;100.00
10097;BME280;5087;42.662;23.466;2022-12-05T10:30:19;96314.72;;;4.74;100.00
10097;BME280;5087;42.662;23.466;2022-12-05T10:32:53;96321.94;;;4.68;100.00
10097;BME280;5087;42.662;23.466;2022-12-05T10:35:24;96321.38;;;4.66;100.00
10097;BME280;5087;42.662;23.466;2022-12-05T10:37:53;96311.38;;;4.62;100.00
10097;BME280;5087;42.662;23.466;2022-12-05T10:40:22;96293.59;;;4.55;100.00
10097;BME280;5087;42.662;23.466;2022-12-05T10:42:50;96310.06;;;4.64;100.00
10097;BME280;5087;42.662;23.466;2022-12-05T10:45:20;96317.06;;;4.65;100.00
10097;BME280;5087;42.662;23.466;2022-12-05T10:47:52;96295.47;;;4.55;100.00
10097;BME280;5087;42.662;23.466;2022-12-05T10:50:28;96307.44;;;4.69;100.00
10097;BME280;5087;42.662;23.466;2022-12-05T10:52:57;96299.41;;;4.74;100.00
10097;BME280;5087;42.662;23.466;2022-12-05T10:55:28;96301.81;;;4.76;100.00
10097;BME280;5087;42.662;23.466;2022-12-05T10:58:09;96293.50;;;4.78;100.00
10097;BME280;5087;42.662;23.466;2022-12-05T11:00:37;96250.00;;;4.53;100.00
10097;BME280;5087;42.662;23.466;2022-12-05T11:03:21;96285.31;;;4.62;100.00
10097;BME280;5087;42.662;23.466;2022-12-05T11:05:53;96281.59;;;4.68;100.00
10097;BME280;5087;42.662;23.466;2022-12-05T11:08:23;96290.84;;;4.83;100.00
10097;BME280;5087;42.662;23.466;2022-12-05T11:11:00;96272.09;;;4.60;100.00
10097;BME280;5087;42.662;23.466;2022-12-05T11:13:31;96282.66;;;4.67;100.00
10097;BME280;5087;42.662;23.466;2022-12-05T11:16:00;96279.94;;;4.62;100.00
10097;BME280;5087;42.662;23.466;2022-12-05T11:18:30;96281.03;;;4.66;100.00
10097;BME280;5087;42.662;23.466;2022-12-05T11:21:13;96283.38;;;4.57;100.00
10097;BME280;5087;42.662;23.466;2022-12-05T11:23:42;96280.44;;;4.59;100.00
10097;BME280;5087;42.662;23.466;2022-12-05T11:26:32;96271.81;;;4.57;100.00
10097;BME280;5087;42.662;23.466;2022-12-05T11:29:00;96264.50;;;4.52;100.00
10097;BME280;5087;42.662;23.466;2022-12-05T11:31:30;96259.13;;;4.52;100.00
10097;BME280;5087;42.662;23.466;2022-12-05T11:34:09;96258.63;;;4.55;100.00
10097;BME280;5087;42.662;23.466;2022-12-05T11:36:43;96258.28;;;4.47;100.00
10097;BME280;5087;42.662;23.466;2022-12-05T11:39:13;96261.56;;;4.54;100.00
10097;BME280;5087;42.662;23.466;2022-12-05T11:41:54;96266.22;;;4.64;100.00
10097;BME280;5087;42.662;23.466;2022-12-05T11:44:34;96240.97;;;4.65;100.00
10097;BME280;5087;42.662;23.466;2022-12-05T11:47:13;96217.44;;;4.50;100.00
10097;BME280;5087;42.662;23.466;2022-12-05T11:50:01;96245.47;;;4.59;100.00
10097;BME280;5087;42.662;23.466;2022-12-05T11:52:49;96246.53;;;4.58;100.00
10097;BME280;5087;42.662;23.466;2022-12-05T11:55:21;96247.88;;;4.55;100.00
10097;BME280;5087;42.662;23.466;2022-12-05T12:00:55;96228.25;;;4.55;100.00
10097;BME280;5087;42.662;23.466;2022-12-05T12:03:59;96237.41;;;4.59;100.00
10097;BME280;5087;42.662;23.466;2022-12-05T12:06:37;96220.47;;;4.58;100.00
10097;BME280;5087;42.662;23.466;2022-12-05T12:09:24;96224.53;;;4.61;100.00
10097;BME280;5087;42.662;23.466;2022-12-05T12:12:00;96228.31;;;4.65;100.00
10097;BME280;5087;42.662;23.466;2022-12-05T12:14:35;96227.78;;;4.63;100.00
10097;BME280;5087;42.662;23.466;2022-12-05T12:17:11;96223.97;;;4.59;100.00
10097;BME280;5087;42.662;23.466;2022-12-05T12:19:52;96218.38;;;4.66;100.00
10097;BME280;5087;42.662;23.466;2022-12-05T12:22:36;96220.47;;;4.58;100.00
10097;BME280;5087;42.662;23.466;2022-12-05T12:25:20;96219.66;;;4.58;100.00
10097;BME280;5087;42.662;23.466;2022-12-05T12:27:55;96205.59;;;4.46;100.00
10097;BME280;5087;42.662;23.466;2022-12-05T12:30:43;96207.22;;;4.47;100.00
10097;BME280;5087;42.662;23.466;2022-12-05T12:33:24;96213.19;;;4.54;100.00
10097;BME280;5087;42.662;23.466;2022-12-05T12:35:57;96208.09;;;4.57;100.00
10097;BME280;5087;42.662;23.466;2022-12-05T12:38:43;96190.25;;;4.46;100.00
10097;BME280;5087;42.662;23.466;2022-12-05T12:41:32;96191.06;;;4.47;100.00
10097;BME280;5087;42.662;23.466;2022-12-05T12:44:12;96221.31;;;4.64;100.00
10097;BME280;5087;42.662;23.466;2022-12-05T12:46:50;96208.41;;;4.66;100.00
10097;BME280;5087;42.662;23.466;2022-12-05T12:49:33;96190.00;;;4.48;100.00
10097;BME280;5087;42.662;23.466;2022-12-05T12:52:13;96200.88;;;4.63;100.00
10097;BME280;5087;42.662;23.466;2022-12-05T12:54:51;96206.16;;;4.53;100.00
10097;BME280;5087;42.662;23.466;2022-12-05T12:57:27;96202.19;;;4.60;100.00
10097;BME280;5087;42.662;23.466;2022-12-05T13:00:03;96196.00;;;4.60;100.00
10097;BME280;5087;42.662;23.466;2022-12-05T13:02:35;96193.88;;;4.62;100.00
10097;BME280;5087;42.662;23.466;2022-12-05T13:05:07;96202.25;;;4.66;100.00
10097;BME280;5087;42.662;23.466;2022-12-05T13:07:47;96196.22;;;4.53;100.00
10097;BME280;5087;42.662;23.466;2022-12-05T13:10:24;96177.66;;;4.52;100.00
10097;BME280;5087;42.662;23.466;2022-12-05T13:12:54;96185.16;;;4.50;100.00
10097;BME280;5087;42.662;23.466;2022-12-05T13:15:30;96193.59;;;4.58;100.00
10097;BME280;5087;42.662;23.466;2022-12-05T13:18:01;96196.44;;;4.47;100.00
10097;BME280;5087;42.662;23.466;2022-12-05T13:20:32;96192.41;;;4.44;100.00
10097;BME280;5087;42.662;23.466;2022-12-05T13:23:02;96195.63;;;4.46;100.00
10097;BME280;5087;42.662;23.466;2022-12-05T13:25:34;96199.66;;;4.49;100.00
10097;BME280;5087;42.662;23.466;2022-12-05T13:28:18;96196.19;;;4.48;100.00
10097;BME280;5087;42.662;23.466;2022-12-05T13:30:48;96203.66;;;4.41;100.00